sensor_id;sensor_type;location;lat;lon;timestamp;P1;durP1;ratioP1;P2;durP2;ratioP2
15950;SDS011;8074;48.112;11.570;2022-11-15T00:00:54;11.67;;;8.03;;
15950;SDS011;8074;48.112;11.570;2022-11-15T00:03:22;10.23;;;7.93;;
15950;SDS011;8074;48.112;11.570;2022-11-15T00:05:50;9.30;;;7.20;;
15950;SDS011;8074;48.112;11.570;2022-11-15T00:08:17;11.40;;;7.30;;
15950;SDS011;8074;48.112;11.570;2022-11-15T00:10:53;8.77;;;7.00;;
15950;SDS011;8074;48.112;11.570;2022-11-15T00:13:22;7.87;;;6.37;;
15950;SDS011;8074;48.112;11.570;2022-11-15T00:15:49;6.50;;;5.20;;
15950;SDS011;8074;48.112;11.570;2022-11-15T00:18:16;8.60;;;6.70;;
15950;SDS011;8074;48.112;11.570;2022-11-15T00:20:46;9.07;;;6.33;;
15950;SDS011;8074;48.112;11.570;2022-11-15T00:23:13;8.67;;;6.57;;
15950;SDS011;8074;48.112;11.570;2022-11-15T00:25:40;10.07;;;6.60;;
15950;SDS011;8074;48.112;11.570;2022-11-15T00:28:06;9.07;;;6.50;;
15950;SDS011;8074;48.112;11.570;2022-11-15T00:30:35;7.50;;;6.53;;
15950;SDS011;8074;48.112;11.570;2022-11-15T00:33:02;8.43;;;6.93;;
15950;SDS011;8074;48.112;11.570;2022-11-15T00:35:30;8.97;;;6.90;;
15950;SDS011;8074;48.112;11.570;2022-11-15T00:37:58;7.83;;;6.03;;
15950;SDS011;8074;48.112;11.570;2022-11-15T00:40:25;11.20;;;6.47;;
15950;SDS011;8074;48.112;11.570;2022-11-15T00:42:52;7.77;;;6.47;;
15950;SDS011;8074;48.112;11.570;2022-11-15T00:45:19;7.93;;;6.03;;
15950;SDS011;8074;48.112;11.570;2022-11-15T00:47:47;8.10;;;6.53;;
15950;SDS011;8074;48.112;11.570;2022-11-15T00:50:14;10.57;;;6.50;;
15950;SDS011;8074;48.112;11.570;2022-11-15T00:52:41;7.50;;;5.83;;
15950;SDS011;8074;48.112;11.570;2022-11-15T00:55:09;8.13;;;5.83;;
15950;SDS011;8074;48.112;11.570;2022-11-15T00:57:39;8.10;;;5.83;;
15950;SDS011;8074;48.112;11.570;2022-11-15T01:00:07;6.83;;;5.60;;
15950;SDS011;8074;48.112;11.570;2022-11-15T01:02:34;8.03;;;5.70;;
15950;SDS011;8074;48.112;11.570;2022-11-15T01:05:03;7.77;;;5.43;;
15950;SDS011;8074;48.112;11.570;2022-11-15T01:07:30;9.07;;;6.60;;
15950;SDS011;8074;48.112;11.570;2022-11-15T01:09:57;9.03;;;6.17;;
15950;SDS011;8074;48.112;11.570;2022-11-15T01:12:24;7.33;;;6.00;;
15950;SDS011;8074;48.112;11.570;2022-11-15T01:14:51;6.33;;;5.70;;
15950;SDS011;8074;48.112;11.570;2022-11-15T01:17:18;9.63;;;5.90;;
15950;SDS011;8074;48.112;11.570;2022-11-15T01:19:45;8.50;;;5.53;;
15950;SDS011;8074;48.112;11.570;2022-11-15T01:22:13;6.73;;;5.23;;
15950;SDS011;8074;48.112;11.570;2022-11-15T01:24:40;7.23;;;5.30;;
15950;SDS011;8074;48.112;11.570;2022-11-15T01:27:07;6.07;;;5.07;;
15950;SDS011;8074;48.112;11.570;2022-11-15T01:29:34;7.57;;;5.47;;
15950;SDS011;8074;48.112;11.570;2022-11-15T01:32:00;6.60;;;4.70;;
15950;SDS011;8074;48.112;11.570;2022-11-15T01:34:27;6.63;;;4.97;;
15950;SDS011;8074;48.112;11.570;2022-11-15T01:36:54;6.13;;;4.47;;
15950;SDS011;8074;48.112;11.570;2022-11-15T01:39:22;4.97;;;4.47;;
15950;SDS011;8074;48.112;11.570;2022-11-15T01:41:49;7.60;;;4.83;;
15950;SDS011;8074;48.112;11.570;2022-11-15T01:44:31;6.60;;;4.73;;
15950;SDS011;8074;48.112;11.570;2022-11-15T01:47:05;6.73;;;4.93;;
15950;SDS011;8074;48.112;11.570;2022-11-15T01:49:35;5.47;;;4.60;;
15950;SDS011;8074;48.112;11.570;2022-11-15T01:52:06;5.77;;;4.73;;
15950;SDS011;8074;48.112;11.570;2022-11-15T01:54:37;6.60;;;4.70;;
15950;SDS011;8074;48.112;11.570;2022-11-15T01:57:05;5.23;;;4.20;;
15950;SDS011;8074;48.112;11.570;2022-11-15T01:59:35;5.67;;;4.53;;
15950;SDS011;8074;48.112;11.570;2022-11-15T02:02:06;7.10;;;4.60;;
15950;SDS011;8074;48.112;11.570;2022-11-15T02:04:34;6.10;;;4.20;;
15950;SDS011;8074;48.112;11.570;2022-11-15T02:07:05;5.67;;;4.00;;
15950;SDS011;8074;48.112;11.570;2022-11-15T02:09:35;5.03;;;4.20;;
15950;SDS011;8074;48.112;11.570;2022-11-15T02:12:04;5.57;;;4.30;;
15950;SDS011;8074;48.112;11.570;2022-11-15T02:14:33;5.93;;;4.73;;
15950;SDS011;8074;48.112;11.570;2022-11-15T02:17:03;5.20;;;4.13;;
15950;SDS011;8074;48.112;11.570;2022-11-15T02:19:43;5.93;;;4.57;;
15950;SDS011;8074;48.112;11.570;2022-11-15T02:22:32;5.57;;;4.63;;
15950;SDS011;8074;48.112;11.570;2022-11-15T02:25:08;4.00;;;3.60;;
15950;SDS011;8074;48.112;11.570;2022-11-15T02:28:00;4.27;;;3.50;;
15950;SDS011;8074;48.112;11.570;2022-11-15T02:30:42;4.33;;;3.37;;
15950;SDS011;8074;48.112;11.570;2022-11-15T02:33:16;4.77;;;3.67;;
15950;SDS011;8074;48.112;11.570;2022-11-15T02:35:52;4.80;;;4.30;;
15950;SDS011;8074;48.112;11.570;2022-11-15T02:38:27;5.23;;;4.10;;
15950;SDS011;8074;48.112;11.570;2022-11-15T02:40:59;3.70;;;3.37;;
15950;SDS011;8074;48.112;11.570;2022-11-15T02:43:33;5.27;;;4.20;;
15950;SDS011;8074;48.112;11.570;2022-11-15T02:46:23;4.93;;;3.43;;
15950;SDS011;8074;48.112;11.570;2022-11-15T02:49:10;4.57;;;3.50;;
15950;SDS011;8074;48.112;11.570;2022-11-15T02:51:38;6.87;;;4.20;;
15950;SDS011;8074;48.112;11.570;2022-11-15T02:54:06;5.27;;;3.80;;
15950;SDS011;8074;48.112;11.570;2022-11-15T02:56:36;6.03;;;4.03;;
15950;SDS011;8074;48.112;11.570;2022-11-15T02:59:10;5.17;;;3.80;;
15950;SDS011;8074;48.112;11.570;2022-11-15T03:01:53;4.93;;;3.60;;
15950;SDS011;8074;48.112;11.570;2022-11-15T03:04:29;5.40;;;3.60;;
15950;SDS011;8074;48.112;11.570;2022-11-15T03:07:05;4.17;;;3.63;;
15950;SDS011;8074;48.112;11.570;2022-11-15T03:09:39;4.07;;;3.40;;
15950;SDS011;8074;48.112;11.570;2022-11-15T03:12:11;6.73;;;3.67;;
15950;SDS011;8074;48.112;11.570;2022-11-15T03:14:43;4.43;;;3.70;;
15950;SDS011;8074;48.112;11.570;2022-11-15T03:17:18;3.90;;;3.37;;
15950;SDS011;8074;48.112;11.570;2022-11-15T03:19:49;4.17;;;3.40;;
15950;SDS011;8074;48.112;11.570;2022-11-15T03:22:20;5.33;;;3.80;;
15950;SDS011;8074;48.112;11.570;2022-11-15T03:24:50;6.73;;;3.57;;
15950;SDS011;8074;48.112;11.570;2022-11-15T03:27:20;4.13;;;3.47;;
15950;SDS011;8074;48.112;11.570;2022-11-15T03:29:50;4.57;;;3.47;;
15950;SDS011;8074;48.112;11.570;2022-11-15T03:32:22;4.03;;;3.40;;
15950;SDS011;8074;48.112;11.570;2022-11-15T03:34:53;4.20;;;3.20;;
15950;SDS011;8074;48.112;11.570;2022-11-15T03:37:24;3.83;;;3.43;;
15950;SDS011;8074;48.112;11.570;2022-11-15T03:39:55;4.40;;;3.30;;
15950;SDS011;8074;48.112;11.570;2022-11-15T03:42:24;4.83;;;3.03;;
15950;SDS011;8074;48.112;11.570;2022-11-15T03:44:57;3.73;;;3.30;;
15950;SDS011;8074;48.112;11.570;2022-11-15T03:47:30;4.20;;;3.07;;
15950;SDS011;8074;48.112;11.570;2022-11-15T03:50:01;4.37;;;3.10;;
15950;SDS011;8074;48.112;11.570;2022-11-15T03:52:33;4.83;;;3.70;;
15950;SDS011;8074;48.112;11.570;2022-11-15T03:55:01;3.83;;;3.37;;
15950;SDS011;8074;48.112;11.570;2022-11-15T03:57:30;4.13;;;3.37;;
15950;SDS011;8074;48.112;11.570;2022-11-15T03:59:57;3.97;;;3.53;;
15950;SDS011;8074;48.112;11.570;2022-11-15T04:02:24;6.30;;;4.73;;
15950;SDS011;8074;48.112;11.570;2022-11-15T04:04:52;4.40;;;3.70;;
15950;SDS011;8074;48.112;11.570;2022-11-15T04:07:19;3.70;;;3.30;;
15950;SDS011;8074;48.112;11.570;2022-11-15T04:09:46;5.70;;;3.70;;
15950;SDS011;8074;48.112;11.570;2022-11-15T04:12:28;3.93;;;3.20;;
15950;SDS011;8074;48.112;11.570;2022-11-15T04:14:58;5.87;;;3.37;;
15950;SDS011;8074;48.112;11.570;2022-11-15T04:17:39;4.73;;;3.60;;
15950;SDS011;8074;48.112;11.570;2022-11-15T04:20:11;3.70;;;3.30;;
15950;SDS011;8074;48.112;11.570;2022-11-15T04:22:54;4.70;;;3.70;;
15950;SDS011;8074;48.112;11.570;2022-11-15T04:25:39;3.97;;;3.57;;
15950;SDS011;8074;48.112;11.570;2022-11-15T04:28:07;4.97;;;4.00;;
15950;SDS011;8074;48.112;11.570;2022-11-15T04:30:34;3.90;;;3.50;;
15950;SDS011;8074;48.112;11.570;2022-11-15T04:33:01;4.33;;;3.37;;
15950;SDS011;8074;48.112;11.570;2022-11-15T04:35:30;3.23;;;2.93;;
15950;SDS011;8074;48.112;11.570;2022-11-15T04:37:57;3.77;;;3.30;;
15950;SDS011;8074;48.112;11.570;2022-11-15T04:40:23;4.63;;;3.43;;
15950;SDS011;8074;48.112;11.570;2022-11-15T04:42:50;8.40;;;3.70;;
15950;SDS011;8074;48.112;11.570;2022-11-15T04:45:17;7.93;;;3.37;;
15950;SDS011;8074;48.112;11.570;2022-11-15T04:47:44;7.00;;;4.00;;
15950;SDS011;8074;48.112;11.570;2022-11-15T04:50:12;7.43;;;5.10;;
15950;SDS011;8074;48.112;11.570;2022-11-15T04:52:41;5.33;;;3.57;;
15950;SDS011;8074;48.112;11.570;2022-11-15T04:55:10;6.23;;;4.20;;
15950;SDS011;8074;48.112;11.570;2022-11-15T04:57:37;3.93;;;3.27;;
15950;SDS011;8074;48.112;11.570;2022-11-15T05:00:05;3.73;;;3.33;;
15950;SDS011;8074;48.112;11.570;2022-11-15T05:02:33;5.03;;;3.20;;
15950;SDS011;8074;48.112;11.570;2022-11-15T05:05:18;4.63;;;3.10;;
15950;SDS011;8074;48.112;11.570;2022-11-15T05:07:46;3.40;;;2.90;;
15950;SDS011;8074;48.112;11.570;2022-11-15T05:10:13;7.27;;;3.43;;
15950;SDS011;8074;48.112;11.570;2022-11-15T05:12:40;4.93;;;3.40;;
15950;SDS011;8074;48.112;11.570;2022-11-15T05:15:08;4.67;;;3.50;;
15950;SDS011;8074;48.112;11.570;2022-11-15T05:17:35;5.40;;;3.40;;
15950;SDS011;8074;48.112;11.570;2022-11-15T05:20:02;4.03;;;3.63;;
15950;SDS011;8074;48.112;11.570;2022-11-15T05:22:30;6.33;;;3.33;;
15950;SDS011;8074;48.112;11.570;2022-11-15T05:24:58;6.50;;;4.60;;
15950;SDS011;8074;48.112;11.570;2022-11-15T05:27:25;6.03;;;3.57;;
15950;SDS011;8074;48.112;11.570;2022-11-15T05:29:52;7.10;;;3.70;;
15950;SDS011;8074;48.112;11.570;2022-11-15T05:32:19;6.23;;;4.20;;
15950;SDS011;8074;48.112;11.570;2022-11-15T05:34:54;7.80;;;4.30;;
15950;SDS011;8074;48.112;11.570;2022-11-15T05:37:22;4.93;;;3.40;;
15950;SDS011;8074;48.112;11.570;2022-11-15T05:39:49;4.97;;;3.80;;
15950;SDS011;8074;48.112;11.570;2022-11-15T05:42:17;6.23;;;4.20;;
15950;SDS011;8074;48.112;11.570;2022-11-15T05:44:46;6.23;;;3.70;;
15950;SDS011;8074;48.112;11.570;2022-11-15T05:47:16;7.80;;;4.17;;
15950;SDS011;8074;48.112;11.570;2022-11-15T05:49:46;4.20;;;3.43;;
15950;SDS011;8074;48.112;11.570;2022-11-15T05:52:16;4.00;;;3.40;;
15950;SDS011;8074;48.112;11.570;2022-11-15T05:54:46;3.97;;;3.53;;
15950;SDS011;8074;48.112;11.570;2022-11-15T05:57:13;4.83;;;3.40;;
15950;SDS011;8074;48.112;11.570;2022-11-15T05:59:42;5.20;;;3.93;;
15950;SDS011;8074;48.112;11.570;2022-11-15T06:02:09;5.27;;;3.97;;
15950;SDS011;8074;48.112;11.570;2022-11-15T06:04:37;4.37;;;3.90;;
15950;SDS011;8074;48.112;11.570;2022-11-15T06:07:04;6.90;;;5.00;;
15950;SDS011;8074;48.112;11.570;2022-11-15T06:09:31;9.67;;;5.43;;
15950;SDS011;8074;48.112;11.570;2022-11-15T06:11:58;5.00;;;3.93;;
15950;SDS011;8074;48.112;11.570;2022-11-15T06:14:25;8.90;;;3.73;;
15950;SDS011;8074;48.112;11.570;2022-11-15T06:16:56;9.03;;;4.60;;
15950;SDS011;8074;48.112;11.570;2022-11-15T06:19:23;7.33;;;3.53;;
15950;SDS011;8074;48.112;11.570;2022-11-15T06:21:50;4.37;;;3.80;;
15950;SDS011;8074;48.112;11.570;2022-11-15T06:24:20;5.37;;;3.70;;
15950;SDS011;8074;48.112;11.570;2022-11-15T06:26:49;6.43;;;4.23;;
15950;SDS011;8074;48.112;11.570;2022-11-15T06:29:17;5.03;;;3.87;;
15950;SDS011;8074;48.112;11.570;2022-11-15T06:31:44;5.70;;;3.97;;
15950;SDS011;8074;48.112;11.570;2022-11-15T06:34:12;6.83;;;4.10;;
15950;SDS011;8074;48.112;11.570;2022-11-15T06:36:39;5.93;;;3.83;;
15950;SDS011;8074;48.112;11.570;2022-11-15T06:39:08;7.93;;;5.43;;
15950;SDS011;8074;48.112;11.570;2022-11-15T06:41:35;5.27;;;4.17;;
15950;SDS011;8074;48.112;11.570;2022-11-15T06:44:03;7.03;;;4.23;;
15950;SDS011;8074;48.112;11.570;2022-11-15T06:46:32;8.30;;;5.80;;
15950;SDS011;8074;48.112;11.570;2022-11-15T06:49:00;10.33;;;5.23;;
15950;SDS011;8074;48.112;11.570;2022-11-15T06:51:28;7.13;;;4.50;;
15950;SDS011;8074;48.112;11.570;2022-11-15T06:53:55;7.63;;;4.37;;
15950;SDS011;8074;48.112;11.570;2022-11-15T06:56:22;6.53;;;5.07;;
15950;SDS011;8074;48.112;11.570;2022-11-15T06:58:49;6.27;;;4.60;;
15950;SDS011;8074;48.112;11.570;2022-11-15T07:01:17;6.77;;;4.77;;
15950;SDS011;8074;48.112;11.570;2022-11-15T07:03:44;10.63;;;4.13;;
15950;SDS011;8074;48.112;11.570;2022-11-15T07:06:11;6.77;;;3.93;;
15950;SDS011;8074;48.112;11.570;2022-11-15T07:08:39;5.00;;;4.20;;
15950;SDS011;8074;48.112;11.570;2022-11-15T07:11:07;5.93;;;4.20;;
15950;SDS011;8074;48.112;11.570;2022-11-15T07:13:35;9.83;;;4.80;;
15950;SDS011;8074;48.112;11.570;2022-11-15T07:16:03;6.20;;;4.87;;
15950;SDS011;8074;48.112;11.570;2022-11-15T07:18:31;5.43;;;4.67;;
15950;SDS011;8074;48.112;11.570;2022-11-15T07:21:00;6.10;;;3.90;;
15950;SDS011;8074;48.112;11.570;2022-11-15T07:23:31;12.97;;;7.17;;
15950;SDS011;8074;48.112;11.570;2022-11-15T07:26:00;5.63;;;4.00;;
15950;SDS011;8074;48.112;11.570;2022-11-15T07:28:27;5.57;;;4.20;;
15950;SDS011;8074;48.112;11.570;2022-11-15T07:30:54;8.27;;;4.07;;
15950;SDS011;8074;48.112;11.570;2022-11-15T07:33:21;5.60;;;4.17;;
15950;SDS011;8074;48.112;11.570;2022-11-15T07:35:48;5.87;;;4.13;;
15950;SDS011;8074;48.112;11.570;2022-11-15T07:38:15;5.87;;;4.00;;
15950;SDS011;8074;48.112;11.570;2022-11-15T07:40:45;8.33;;;3.73;;
15950;SDS011;8074;48.112;11.570;2022-11-15T07:43:14;3.90;;;3.27;;
15950;SDS011;8074;48.112;11.570;2022-11-15T07:45:41;3.50;;;3.20;;
15950;SDS011;8074;48.112;11.570;2022-11-15T07:48:15;3.53;;;3.00;;
15950;SDS011;8074;48.112;11.570;2022-11-15T07:50:42;4.47;;;2.80;;
15950;SDS011;8074;48.112;11.570;2022-11-15T07:53:15;7.27;;;3.40;;
15950;SDS011;8074;48.112;11.570;2022-11-15T07:55:42;5.40;;;3.17;;
15950;SDS011;8074;48.112;11.570;2022-11-15T07:58:09;6.90;;;3.40;;
15950;SDS011;8074;48.112;11.570;2022-11-15T08:00:39;5.03;;;3.23;;
15950;SDS011;8074;48.112;11.570;2022-11-15T08:03:06;7.93;;;3.83;;
15950;SDS011;8074;48.112;11.570;2022-11-15T08:05:35;11.40;;;3.83;;
15950;SDS011;8074;48.112;11.570;2022-11-15T08:08:03;7.43;;;4.30;;
15950;SDS011;8074;48.112;11.570;2022-11-15T08:10:30;14.07;;;4.57;;
15950;SDS011;8074;48.112;11.570;2022-11-15T08:12:59;5.00;;;3.83;;
15950;SDS011;8074;48.112;11.570;2022-11-15T08:15:26;10.30;;;5.17;;
15950;SDS011;8074;48.112;11.570;2022-11-15T08:17:55;10.50;;;6.93;;
15950;SDS011;8074;48.112;11.570;2022-11-15T08:20:22;6.20;;;4.40;;
15950;SDS011;8074;48.112;11.570;2022-11-15T08:22:50;6.57;;;3.87;;
15950;SDS011;8074;48.112;11.570;2022-11-15T08:25:17;9.13;;;5.23;;
15950;SDS011;8074;48.112;11.570;2022-11-15T08:27:44;7.47;;;4.27;;
15950;SDS011;8074;48.112;11.570;2022-11-15T08:30:11;10.57;;;5.20;;
15950;SDS011;8074;48.112;11.570;2022-11-15T08:32:41;8.40;;;3.70;;
15950;SDS011;8074;48.112;11.570;2022-11-15T08:35:10;11.83;;;4.10;;
15950;SDS011;8074;48.112;11.570;2022-11-15T08:37:37;5.73;;;3.73;;
15950;SDS011;8074;48.112;11.570;2022-11-15T08:40:06;6.27;;;3.43;;
15950;SDS011;8074;48.112;11.570;2022-11-15T08:42:35;7.63;;;3.63;;
15950;SDS011;8074;48.112;11.570;2022-11-15T08:45:02;8.10;;;4.00;;
15950;SDS011;8074;48.112;11.570;2022-11-15T08:47:30;8.33;;;4.07;;
15950;SDS011;8074;48.112;11.570;2022-11-15T08:49:57;4.53;;;3.10;;
15950;SDS011;8074;48.112;11.570;2022-11-15T08:52:28;6.13;;;3.50;;
15950;SDS011;8074;48.112;11.570;2022-11-15T08:54:55;9.17;;;3.67;;
15950;SDS011;8074;48.112;11.570;2022-11-15T08:57:22;5.73;;;2.87;;
15950;SDS011;8074;48.112;11.570;2022-11-15T08:59:49;5.43;;;3.80;;
15950;SDS011;8074;48.112;11.570;2022-11-15T09:02:16;6.37;;;3.80;;
15950;SDS011;8074;48.112;11.570;2022-11-15T09:04:43;8.70;;;4.40;;
15950;SDS011;8074;48.112;11.570;2022-11-15T09:07:10;3.63;;;2.83;;
15950;SDS011;8074;48.112;11.570;2022-11-15T09:09:39;5.07;;;3.03;;
15950;SDS011;8074;48.112;11.570;2022-11-15T09:12:07;6.63;;;3.30;;
15950;SDS011;8074;48.112;11.570;2022-11-15T09:14:36;7.03;;;4.00;;
15950;SDS011;8074;48.112;11.570;2022-11-15T09:17:03;3.60;;;2.90;;
15950;SDS011;8074;48.112;11.570;2022-11-15T09:19:33;4.07;;;3.13;;
15950;SDS011;8074;48.112;11.570;2022-11-15T09:22:02;6.20;;;3.93;;
15950;SDS011;8074;48.112;11.570;2022-11-15T09:24:33;4.57;;;3.10;;
15950;SDS011;8074;48.112;11.570;2022-11-15T09:27:08;3.33;;;2.87;;
15950;SDS011;8074;48.112;11.570;2022-11-15T09:29:35;6.53;;;3.80;;
15950;SDS011;8074;48.112;11.570;2022-11-15T09:32:03;4.87;;;2.93;;
15950;SDS011;8074;48.112;11.570;2022-11-15T09:34:30;7.80;;;3.33;;
15950;SDS011;8074;48.112;11.570;2022-11-15T09:36:57;10.50;;;5.37;;
15950;SDS011;8074;48.112;11.570;2022-11-15T09:39:24;5.80;;;3.30;;
15950;SDS011;8074;48.112;11.570;2022-11-15T09:42:01;5.07;;;3.30;;
15950;SDS011;8074;48.112;11.570;2022-11-15T09:44:53;7.50;;;3.13;;
15950;SDS011;8074;48.112;11.570;2022-11-15T09:47:39;5.27;;;3.40;;
15950;SDS011;8074;48.112;11.570;2022-11-15T09:50:31;5.70;;;3.40;;
15950;SDS011;8074;48.112;11.570;2022-11-15T09:53:09;6.50;;;3.07;;
15950;SDS011;8074;48.112;11.570;2022-11-15T09:55:41;6.87;;;3.63;;
15950;SDS011;8074;48.112;11.570;2022-11-15T09:58:24;6.10;;;2.90;;
15950;SDS011;8074;48.112;11.570;2022-11-15T10:00:56;5.33;;;3.80;;
15950;SDS011;8074;48.112;11.570;2022-11-15T10:03:27;7.70;;;3.70;;
15950;SDS011;8074;48.112;11.570;2022-11-15T10:05:56;5.03;;;3.20;;
15950;SDS011;8074;48.112;11.570;2022-11-15T10:08:33;5.00;;;3.90;;
15950;SDS011;8074;48.112;11.570;2022-11-15T10:11:07;4.33;;;2.80;;
15950;SDS011;8074;48.112;11.570;2022-11-15T10:13:39;2.80;;;2.33;;
15950;SDS011;8074;48.112;11.570;2022-11-15T10:16:10;4.80;;;2.30;;
15950;SDS011;8074;48.112;11.570;2022-11-15T10:18:49;3.80;;;2.30;;
15950;SDS011;8074;48.112;11.570;2022-11-15T10:21:29;8.47;;;3.63;;
15950;SDS011;8074;48.112;11.570;2022-11-15T10:24:07;5.17;;;4.10;;
15950;SDS011;8074;48.112;11.570;2022-11-15T10:26:38;6.87;;;3.20;;
15950;SDS011;8074;48.112;11.570;2022-11-15T10:29:07;4.70;;;2.60;;
15950;SDS011;8074;48.112;11.570;2022-11-15T10:31:34;4.90;;;2.90;;
15950;SDS011;8074;48.112;11.570;2022-11-15T10:34:10;2.93;;;2.40;;
15950;SDS011;8074;48.112;11.570;2022-11-15T10:36:43;3.23;;;2.20;;
15950;SDS011;8074;48.112;11.570;2022-11-15T10:39:12;2.47;;;2.20;;
15950;SDS011;8074;48.112;11.570;2022-11-15T10:41:41;3.83;;;2.30;;
15950;SDS011;8074;48.112;11.570;2022-11-15T10:44:22;5.13;;;2.90;;
15950;SDS011;8074;48.112;11.570;2022-11-15T10:50:28;3.80;;;2.70;;
15950;SDS011;8074;48.112;11.570;2022-11-15T10:52:57;3.37;;;2.70;;
15950;SDS011;8074;48.112;11.570;2022-11-15T10:55:46;4.70;;;2.50;;
15950;SDS011;8074;48.112;11.570;2022-11-15T10:58:35;3.07;;;2.10;;
15950;SDS011;8074;48.112;11.570;2022-11-15T11:01:13;4.57;;;2.20;;
15950;SDS011;8074;48.112;11.570;2022-11-15T11:04:07;4.07;;;2.20;;
15950;SDS011;8074;48.112;11.570;2022-11-15T11:06:45;4.97;;;2.10;;
15950;SDS011;8074;48.112;11.570;2022-11-15T11:09:20;2.73;;;1.87;;
15950;SDS011;8074;48.112;11.570;2022-11-15T11:11:51;4.33;;;2.07;;
15950;SDS011;8074;48.112;11.570;2022-11-15T11:14:20;3.77;;;2.23;;
15950;SDS011;8074;48.112;11.570;2022-11-15T11:17:01;2.90;;;2.10;;
15950;SDS011;8074;48.112;11.570;2022-11-15T11:22:41;3.60;;;2.07;;
15950;SDS011;8074;48.112;11.570;2022-11-15T11:25:42;2.60;;;1.83;;
15950;SDS011;8074;48.112;11.570;2022-11-15T11:28:36;2.40;;;2.20;;
15950;SDS011;8074;48.112;11.570;2022-11-15T11:31:44;4.13;;;2.20;;
15950;SDS011;8074;48.112;11.570;2022-11-15T11:34:49;6.93;;;2.60;;
15950;SDS011;8074;48.112;11.570;2022-11-15T11:37:23;2.80;;;2.40;;
15950;SDS011;8074;48.112;11.570;2022-11-15T11:39:59;3.47;;;2.13;;
15950;SDS011;8074;48.112;11.570;2022-11-15T11:42:40;2.90;;;2.07;;
15950;SDS011;8074;48.112;11.570;2022-11-15T11:45:21;3.23;;;2.50;;
15950;SDS011;8074;48.112;11.570;2022-11-15T11:48:01;6.67;;;2.90;;
15950;SDS011;8074;48.112;11.570;2022-11-15T11:53:45;2.70;;;2.37;;
15950;SDS011;8074;48.112;11.570;2022-11-15T11:56:23;2.60;;;1.80;;
15950;SDS011;8074;48.112;11.570;2022-11-15T11:59:19;3.30;;;1.90;;
15950;SDS011;8074;48.112;11.570;2022-11-15T12:02:17;1.97;;;1.70;;
15950;SDS011;8074;48.112;11.570;2022-11-15T12:04:48;2.50;;;1.60;;
15950;SDS011;8074;48.112;11.570;2022-11-15T12:07:21;3.10;;;1.73;;
15950;SDS011;8074;48.112;11.570;2022-11-15T12:10:21;3.80;;;2.00;;
15950;SDS011;8074;48.112;11.570;2022-11-15T12:12:54;2.00;;;1.80;;
15950;SDS011;8074;48.112;11.570;2022-11-15T12:15:33;2.13;;;1.80;;
15950;SDS011;8074;48.112;11.570;2022-11-15T12:18:08;3.93;;;1.90;;
15950;SDS011;8074;48.112;11.570;2022-11-15T12:20:49;3.83;;;2.50;;
15950;SDS011;8074;48.112;11.570;2022-11-15T12:23:44;3.03;;;2.10;;
15950;SDS011;8074;48.112;11.570;2022-11-15T12:32:54;2.87;;;1.57;;
15950;SDS011;8074;48.112;11.570;2022-11-15T12:35:25;3.73;;;3.27;;
15950;SDS011;8074;48.112;11.570;2022-11-15T12:41:35;2.07;;;1.87;;
15950;SDS011;8074;48.112;11.570;2022-11-15T12:47:42;2.33;;;1.90;;
15950;SDS011;8074;48.112;11.570;2022-11-15T12:53:27;4.87;;;3.90;;
15950;SDS011;8074;48.112;11.570;2022-11-15T13:02:17;2.03;;;1.63;;
15950;SDS011;8074;48.112;11.570;2022-11-15T13:04:48;2.87;;;2.03;;
15950;SDS011;8074;48.112;11.570;2022-11-15T13:10:34;2.83;;;2.30;;
15950;SDS011;8074;48.112;11.570;2022-11-15T13:13:04;4.40;;;2.00;;
15950;SDS011;8074;48.112;11.570;2022-11-15T13:18:34;2.50;;;1.83;;
15950;SDS011;8074;48.112;11.570;2022-11-15T13:21:04;2.00;;;1.80;;
15950;SDS011;8074;48.112;11.570;2022-11-15T13:24:42;2.47;;;1.90;;
15950;SDS011;8074;48.112;11.570;2022-11-15T13:27:30;2.90;;;2.07;;
15950;SDS011;8074;48.112;11.570;2022-11-15T13:30:12;3.37;;;2.03;;
15950;SDS011;8074;48.112;11.570;2022-11-15T13:32:49;2.53;;;2.27;;
15950;SDS011;8074;48.112;11.570;2022-11-15T13:35:39;3.30;;;2.13;;
15950;SDS011;8074;48.112;11.570;2022-11-15T13:38:53;3.30;;;2.00;;
15950;SDS011;8074;48.112;11.570;2022-11-15T13:41:26;4.17;;;2.17;;
15950;SDS011;8074;48.112;11.570;2022-11-15T13:44:32;3.07;;;2.37;;
15950;SDS011;8074;48.112;11.570;2022-11-15T13:50:29;5.80;;;2.40;;
15950;SDS011;8074;48.112;11.570;2022-11-15T13:53:06;4.70;;;2.77;;
15950;SDS011;8074;48.112;11.570;2022-11-15T13:55:36;5.53;;;2.30;;
15950;SDS011;8074;48.112;11.570;2022-11-15T13:58:04;3.17;;;2.60;;
15950;SDS011;8074;48.112;11.570;2022-11-15T14:00:38;3.00;;;2.30;;
15950;SDS011;8074;48.112;11.570;2022-11-15T14:03:29;2.80;;;2.10;;
15950;SDS011;8074;48.112;11.570;2022-11-15T14:06:22;8.17;;;2.33;;
15950;SDS011;8074;48.112;11.570;2022-11-15T14:09:00;4.13;;;2.03;;
15950;SDS011;8074;48.112;11.570;2022-11-15T14:14:24;5.83;;;2.20;;
15950;SDS011;8074;48.112;11.570;2022-11-15T14:16:59;4.27;;;2.73;;
15950;SDS011;8074;48.112;11.570;2022-11-15T14:19:54;3.20;;;2.70;;
15950;SDS011;8074;48.112;11.570;2022-11-15T14:25:20;3.70;;;2.17;;
15950;SDS011;8074;48.112;11.570;2022-11-15T14:30:35;3.57;;;2.37;;
15950;SDS011;8074;48.112;11.570;2022-11-15T14:33:13;4.53;;;2.50;;
15950;SDS011;8074;48.112;11.570;2022-11-15T14:35:46;4.77;;;2.53;;
15950;SDS011;8074;48.112;11.570;2022-11-15T14:38:14;7.43;;;2.43;;
15950;SDS011;8074;48.112;11.570;2022-11-15T14:40:42;11.87;;;5.60;;
15950;SDS011;8074;48.112;11.570;2022-11-15T14:43:11;8.77;;;4.67;;
15950;SDS011;8074;48.112;11.570;2022-11-15T14:45:44;5.43;;;3.50;;
15950;SDS011;8074;48.112;11.570;2022-11-15T14:51:27;10.47;;;3.20;;
15950;SDS011;8074;48.112;11.570;2022-11-15T14:54:02;8.40;;;3.50;;
15950;SDS011;8074;48.112;11.570;2022-11-15T14:56:29;5.90;;;2.77;;
15950;SDS011;8074;48.112;11.570;2022-11-15T14:58:57;7.10;;;2.63;;
15950;SDS011;8074;48.112;11.570;2022-11-15T15:01:24;4.10;;;2.70;;
15950;SDS011;8074;48.112;11.570;2022-11-15T15:03:53;7.97;;;2.83;;
15950;SDS011;8074;48.112;11.570;2022-11-15T15:06:24;5.87;;;2.57;;
15950;SDS011;8074;48.112;11.570;2022-11-15T15:09:05;6.07;;;3.40;;
15950;SDS011;8074;48.112;11.570;2022-11-15T15:11:33;7.53;;;3.40;;
15950;SDS011;8074;48.112;11.570;2022-11-15T15:14:00;7.77;;;4.30;;
15950;SDS011;8074;48.112;11.570;2022-11-15T15:16:30;9.40;;;3.40;;
15950;SDS011;8074;48.112;11.570;2022-11-15T15:19:17;8.87;;;3.43;;
15950;SDS011;8074;48.112;11.570;2022-11-15T15:22:05;4.27;;;3.23;;
15950;SDS011;8074;48.112;11.570;2022-11-15T15:24:32;9.37;;;3.67;;
15950;SDS011;8074;48.112;11.570;2022-11-15T15:27:02;9.70;;;4.10;;
15950;SDS011;8074;48.112;11.570;2022-11-15T15:29:29;11.03;;;4.20;;
15950;SDS011;8074;48.112;11.570;2022-11-15T15:32:03;11.20;;;5.20;;
15950;SDS011;8074;48.112;11.570;2022-11-15T15:34:49;7.77;;;3.77;;
15950;SDS011;8074;48.112;11.570;2022-11-15T15:37:19;8.20;;;4.37;;
15950;SDS011;8074;48.112;11.570;2022-11-15T15:39:49;6.63;;;4.17;;
15950;SDS011;8074;48.112;11.570;2022-11-15T15:42:18;9.23;;;4.90;;
15950;SDS011;8074;48.112;11.570;2022-11-15T15:44:46;8.57;;;5.40;;
15950;SDS011;8074;48.112;11.570;2022-11-15T15:47:18;8.17;;;5.20;;
15950;SDS011;8074;48.112;11.570;2022-11-15T15:50:02;10.67;;;4.73;;
15950;SDS011;8074;48.112;11.570;2022-11-15T15:52:30;13.83;;;6.30;;
15950;SDS011;8074;48.112;11.570;2022-11-15T15:54:57;10.03;;;6.13;;
15950;SDS011;8074;48.112;11.570;2022-11-15T15:57:25;8.17;;;6.00;;
15950;SDS011;8074;48.112;11.570;2022-11-15T15:59:55;10.03;;;6.30;;
15950;SDS011;8074;48.112;11.570;2022-11-15T16:02:31;8.47;;;6.60;;
15950;SDS011;8074;48.112;11.570;2022-11-15T16:04:58;11.97;;;9.17;;
15950;SDS011;8074;48.112;11.570;2022-11-15T16:08:21;10.60;;;8.63;;
15950;SDS011;8074;48.112;11.570;2022-11-15T16:10:50;15.30;;;8.50;;